Time;durP1;ratioP1;P1;durP2;ratioP2;P2;SDS_P1;SDS_P2;PMS_P1;PMS_P2;Temp;Humidity;BMP_temperature;BMP_pressure;BME280_temperature;BME280_humidity;BME280_pressure;Samples;Min_cycle;Max_cycle;Signal;HPM_P1;HPM_P2
2023/05/18 00:00:09;;;;;;;8.60;3.73;;;;;;;;;;5055485;28;20171;-68
2023/05/18 00:02:35;;;;;;;13.67;3.70;;;;;;;;;;5037702;28;20194;-68
2023/05/18 00:05:01;;;;;;;10.17;3.47;;;;;;;;;;5038974;28;20678;-67
2023/05/18 00:07:28;;;;;;;8.80;3.50;;;;;;;;;;5037294;28;20664;-68
2023/05/18 00:09:55;;;;;;;15.63;3.57;;;;;;;;;;5055350;28;20179;-68
2023/05/18 00:12:21;;;;;;;5.50;3.10;;;;;;;;;;5055070;28;20233;-67
2023/05/18 00:14:46;;;;;;;10.23;4.03;;;;;;;;;;5055180;28;20210;-67
2023/05/18 00:17:13;;;;;;;11.03;3.63;;;;;;;;;;5037263;28;20190;-67
2023/05/18 00:19:39;;;;;;;11.43;3.87;;;;;;;;;;5037320;28;20187;-68
2023/05/18 00:22:06;;;;;;;12.70;3.63;;;;;;;;;;5037118;28;20209;-68
2023/05/18 00:24:32;;;;;;;13.97;3.40;;;;;;;;;;5037093;28;20273;-67
2023/05/18 00:26:58;;;;;;;12.83;3.50;;;;;;;;;;5055140;28;20564;-67
2023/05/18 00:29:24;;;;;;;10.17;3.70;;;;;;;;;;5036847;28;20174;-68
2023/05/18 00:31:50;;;;;;;9.13;3.97;;;;;;;;;;5053952;28;20254;-67
2023/05/18 00:34:16;;;;;;;10.97;3.90;;;;;;;;;;5036870;28;20551;-67
2023/05/18 00:36:42;;;;;;;11.47;3.73;;;;;;;;;;5054703;28;20244;-68
2023/05/18 00:39:09;;;;;;;10.97;3.67;;;;;;;;;;5054726;28;20178;-68
2023/05/18 00:41:35;;;;;;;10.77;3.97;;;;;;;;;;5055137;28;20257;-67
2023/05/18 00:44:01;;;;;;;12.47;4.00;;;;;;;;;;5054427;28;20215;-68
2023/05/18 00:46:27;;;;;;;9.80;3.53;;;;;;;;;;5054704;28;20198;-68
2023/05/18 00:48:55;;;;;;;13.00;4.53;;;;;;;;;;5054435;28;20262;-68
2023/05/18 00:51:22;;;;;;;13.40;4.20;;;;;;;;;;5035400;28;20377;-67
2023/05/18 00:53:49;;;;;;;14.32;4.13;;;;;;;;;;5053484;28;20377;-67
2023/05/18 00:56:15;;;;;;;12.10;4.13;;;;;;;;;;5054933;28;20427;-67
2023/05/18 00:58:41;;;;;;;12.03;4.17;;;;;;;;;;5054248;28;20409;-67
2023/05/18 01:01:08;;;;;;;10.40;3.47;;;;;;;;;;5054219;28;20170;-67
2023/05/18 01:03:36;;;;;;;13.80;4.20;;;;;;;;;;5054081;28;20244;-68
2023/05/18 01:06:04;;;;;;;12.97;5.20;;;;;;;;;;5054773;28;20190;-67
2023/05/18 01:08:30;;;;;;;13.80;4.83;;;;;;;;;;5036420;28;20175;-67
2023/05/18 01:11:01;;;;;;;9.80;4.40;;;;;;;;;;5054376;28;20171;-68
2023/05/18 01:13:35;;;;;;;15.05;5.40;;;;;;;;;;5035418;28;20428;-70
2023/05/18 01:16:03;;;;;;;13.75;5.70;;;;;;;;;;5052974;28;20878;-68
2023/05/18 01:18:33;;;;;;;12.27;4.87;;;;;;;;;;5035957;28;20178;-68
2023/05/18 01:21:10;;;;;;;15.37;4.93;;;;;;;;;;5054309;28;20183;-66
2023/05/18 01:23:53;;;;;;;13.17;4.90;;;;;;;;;;5054410;28;20201;-67
2023/05/18 01:26:30;;;;;;;10.03;4.67;;;;;;;;;;5036215;28;20671;-68
2023/05/18 01:28:58;;;;;;;13.50;5.17;;;;;;;;;;5053972;28;20579;-68
2023/05/18 01:31:24;;;;;;;12.67;4.10;;;;;;;;;;5035869;28;20175;-68
2023/05/18 01:33:50;;;;;;;12.43;4.70;;;;;;;;;;5052612;28;20392;-68
2023/05/18 01:36:16;;;;;;;11.47;4.43;;;;;;;;;;5053653;28;20525;-68
2023/05/18 01:38:42;;;;;;;13.47;3.90;;;;;;;;;;5035668;28;20178;-68
2023/05/18 01:41:17;;;;;;;12.85;4.80;;;;;;;;;;5052489;28;20385;-68
2023/05/18 01:44:01;;;;;;;9.47;4.50;;;;;;;;;;5053236;28;20570;-68
2023/05/18 01:46:32;;;;;;;12.43;4.63;;;;;;;;;;5036324;28;20198;-68
2023/05/18 01:49:00;;;;;;;10.60;4.50;;;;;;;;;;5054033;28;20163;-68
2023/05/18 01:51:30;;;;;;;13.97;5.90;;;;;;;;;;5035448;28;20175;-68
2023/05/18 01:54:02;;;;;;;13.53;5.10;;;;;;;;;;5035363;28;20194;-68
2023/05/18 01:56:29;;;;;;;11.90;5.00;;;;;;;;;;5053366;28;20192;-68
2023/05/18 01:58:57;;;;;;;10.20;4.23;;;;;;;;;;5053343;28;20206;-68
2023/05/18 02:01:23;;;;;;;10.03;4.20;;;;;;;;;;5053745;28;20210;-69
2023/05/18 02:03:50;;;;;;;15.50;5.57;;;;;;;;;;5054051;28;20691;-68
2023/05/18 02:06:16;;;;;;;13.87;4.40;;;;;;;;;;5054042;28;20202;-68
2023/05/18 02:08:42;;;;;;;15.00;4.20;;;;;;;;;;5054286;28;20265;-68
2023/05/18 02:11:08;;;;;;;13.40;5.20;;;;;;;;;;5035479;28;20652;-68
2023/05/18 02:13:34;;;;;;;11.43;4.27;;;;;;;;;;5053467;28;20198;-68
2023/05/18 02:16:00;;;;;;;12.63;4.23;;;;;;;;;;5035336;28;20186;-68
2023/05/18 02:18:26;;;;;;;12.00;4.43;;;;;;;;;;5035215;28;20190;-69
2023/05/18 02:20:58;;;;;;;10.73;3.80;;;;;;;;;;5035177;28;20211;-68
2023/05/18 02:23:25;;;;;;;13.50;4.80;;;;;;;;;;5051932;28;20389;-70
2023/05/18 02:25:54;;;;;;;11.02;4.57;;;;;;;;;;5034063;28;20958;-70
2023/05/18 02:28:20;;;;;;;11.53;4.37;;;;;;;;;;5053050;28;20173;-70
2023/05/18 02:30:46;;;;;;;11.23;4.53;;;;;;;;;;5053276;28;20254;-69
2023/05/18 02:33:12;;;;;;;8.77;4.43;;;;;;;;;;5052902;28;20629;-69
2023/05/18 02:35:39;;;;;;;10.27;4.23;;;;;;;;;;5052925;28;20178;-70
2023/05/18 02:38:05;;;;;;;12.80;4.53;;;;;;;;;;5037077;28;20624;-69
2023/05/18 02:40:31;;;;;;;11.27;4.83;;;;;;;;;;5035326;28;20178;-68
2023/05/18 02:42:57;;;;;;;7.83;4.33;;;;;;;;;;5052713;28;20206;-69
2023/05/18 02:45:24;;;;;;;10.47;4.03;;;;;;;;;;5053183;28;20170;-69
2023/05/18 02:47:49;;;;;;;11.13;4.77;;;;;;;;;;5052841;28;20202;-69
2023/05/18 02:50:15;;;;;;;12.43;4.40;;;;;;;;;;5052925;28;20174;-68
2023/05/18 02:52:44;;;;;;;13.37;4.50;;;;;;;;;;5052745;28;20206;-69
2023/05/18 02:55:10;;;;;;;13.10;4.50;;;;;;;;;;5054184;28;20536;-68
2023/05/18 02:57:36;;;;;;;9.77;5.00;;;;;;;;;;5056903;28;20179;-69
2023/05/18 03:00:08;;;;;;;12.03;4.90;;;;;;;;;;5057318;28;20715;-68
2023/05/18 03:02:37;;;;;;;12.07;4.63;;;;;;;;;;5056775;28;20209;-70
2023/05/18 03:05:04;;;;;;;11.93;5.17;;;;;;;;;;5038715;28;20560;-68
2023/05/18 03:07:31;;;;;;;11.00;4.77;;;;;;;;;;5038547;28;20285;-70
2023/05/18 03:09:57;;;;;;;11.73;5.33;;;;;;;;;;5056710;28;20174;-68
2023/05/18 03:12:23;;;;;;;9.33;4.70;;;;;;;;;;5038377;28;20616;-68
2023/05/18 03:14:49;;;;;;;10.53;4.70;;;;;;;;;;5056278;28;20220;-69
2023/05/18 03:17:15;;;;;;;8.87;4.80;;;;;;;;;;5038376;28;20205;-70
2023/05/18 03:19:41;;;;;;;11.30;5.38;;;;;;;;;;5037561;28;20402;-69
2023/05/18 03:22:08;;;;;;;11.90;4.70;;;;;;;;;;5056794;28;20194;-70
2023/05/18 03:24:39;;;;;;;12.83;5.17;;;;;;;;;;5038468;28;20174;-69
2023/05/18 03:27:05;;;;;;;11.50;5.83;;;;;;;;;;5038308;28;20190;-68
2023/05/18 03:29:31;;;;;;;14.53;5.67;;;;;;;;;;5058042;28;20171;-69
2023/05/18 03:31:57;;;;;;;13.03;5.83;;;;;;;;;;5056378;28;20171;-69
2023/05/18 03:34:24;;;;;;;13.70;5.50;;;;;;;;;;5038227;28;20208;-70
2023/05/18 03:36:51;;;;;;;14.73;6.07;;;;;;;;;;5056006;28;20170;-68
2023/05/18 03:39:17;;;;;;;15.47;6.63;;;;;;;;;;5056994;28;20174;-68
2023/05/18 03:41:43;;;;;;;15.17;7.00;;;;;;;;;;5056173;28;20583;-68
2023/05/18 03:44:09;;;;;;;14.00;6.13;;;;;;;;;;5056152;28;20572;-68
2023/05/18 03:46:35;;;;;;;17.13;6.80;;;;;;;;;;5038814;28;20218;-67
2023/05/18 03:49:03;;;;;;;15.77;6.50;;;;;;;;;;5056072;28;20181;-68
2023/05/18 03:51:30;;;;;;;15.88;7.93;;;;;;;;;;5057360;28;20461;-67
2023/05/18 03:53:56;;;;;;;18.27;7.20;;;;;;;;;;5058008;28;20554;-68
2023/05/18 03:56:22;;;;;;;12.63;5.50;;;;;;;;;;5055961;28;20656;-69
2023/05/18 03:58:50;;;;;;;15.63;6.50;;;;;;;;;;5056339;28;20266;-68
2023/05/18 04:01:17;;;;;;;11.37;5.53;;;;;;;;;;5056136;28;20265;-68
2023/05/18 04:03:44;;;;;;;13.97;5.63;;;;;;;;;;5056818;28;20285;-68
2023/05/18 04:06:10;;;;;;;14.00;6.67;;;;;;;;;;5058125;28;20202;-68
2023/05/18 04:08:36;;;;;;;12.03;5.83;;;;;;;;;;5039572;28;20178;-67
2023/05/18 04:11:02;;;;;;;11.40;5.30;;;;;;;;;;5057264;28;20652;-66
2023/05/18 04:13:28;;;;;;;10.40;4.67;;;;;;;;;;5039332;28;20565;-68
2023/05/18 04:15:57;;;;;;;13.30;5.60;;;;;;;;;;5039750;28;20189;-70
2023/05/18 04:18:23;;;;;;;12.03;5.30;;;;;;;;;;5041253;28;20189;-68
2023/05/18 04:20:49;;;;;;;12.27;6.10;;;;;;;;;;5058145;28;20480;-67
2023/05/18 04:23:15;;;;;;;14.33;5.53;;;;;;;;;;5057158;28;20186;-68
2023/05/18 04:25:42;;;;;;;10.97;5.03;;;;;;;;;;5070034;28;20171;-67
2023/05/18 04:28:08;;;;;;;15.48;6.90;;;;;;;;;;5069542;28;20408;-67
2023/05/18 04:30:36;;;;;;;14.25;6.55;;;;;;;;;;5063441;28;20381;-68
2023/05/18 04:33:03;;;;;;;17.70;6.15;;;;;;;;;;5040734;28;20782;-68
2023/05/18 04:35:30;;;;;;;14.37;5.77;;;;;;;;;;5038384;28;20201;-69
2023/05/18 04:37:56;;;;;;;9.67;4.83;;;;;;;;;;5037921;28;20178;-69
2023/05/18 04:40:24;;;;;;;11.50;4.67;;;;;;;;;;5038438;28;20185;-68
2023/05/18 04:42:50;;;;;;;13.93;6.10;;;;;;;;;;5054755;28;20447;-68
2023/05/18 04:45:16;;;;;;;8.93;4.90;;;;;;;;;;5055837;28;20206;-68
2023/05/18 04:47:45;;;;;;;8.73;3.53;;;;;;;;;;5038406;28;20194;-68
2023/05/18 04:50:12;;;;;;;6.17;4.40;;;;;;;;;;5056632;28;20186;-68
2023/05/18 04:52:40;;;;;;;10.73;4.87;;;;;;;;;;5056610;28;20201;-69
2023/05/18 04:55:09;;;;;;;12.60;5.47;;;;;;;;;;5056243;28;20178;-68
2023/05/18 04:57:35;;;;;;;16.83;5.17;;;;;;;;;;5038460;28;20265;-68
2023/05/18 05:00:04;;;;;;;13.27;5.13;;;;;;;;;;5038160;28;20191;-68
2023/05/18 05:02:30;;;;;;;8.23;4.50;;;;;;;;;;5055316;28;20229;-70
2023/05/18 05:04:56;;;;;;;12.53;5.13;;;;;;;;;;5054701;28;20175;-68
2023/05/18 05:07:22;;;;;;;9.43;4.77;;;;;;;;;;5054733;28;20212;-69
2023/05/18 05:09:48;;;;;;;12.17;5.17;;;;;;;;;;5038358;28;20174;-69
2023/05/18 05:12:14;;;;;;;14.97;4.93;;;;;;;;;;5054411;28;20190;-69
2023/05/18 05:14:40;;;;;;;11.67;5.33;;;;;;;;;;5036455;28;20175;-69
2023/05/18 05:17:06;;;;;;;12.40;4.87;;;;;;;;;;5054377;28;20186;-68
2023/05/18 05:19:32;;;;;;;6.47;4.53;;;;;;;;;;5053740;28;20190;-70
2023/05/18 05:21:58;;;;;;;12.37;4.60;;;;;;;;;;5036485;28;20186;-69
2023/05/18 05:24:24;;;;;;;9.90;4.50;;;;;;;;;;5054825;28;20182;-68
2023/05/18 05:26:50;;;;;;;8.30;4.33;;;;;;;;;;5077013;22;20238;-68
2023/05/18 05:29:16;;;;;;;7.90;4.83;;;;;;;;;;5054043;28;20171;-67
2023/05/18 05:31:42;;;;;;;9.47;4.67;;;;;;;;;;5054282;28;20271;-67
2023/05/18 05:34:10;;;;;;;16.33;4.67;;;;;;;;;;5053927;28;20257;-67
2023/05/18 05:36:36;;;;;;;10.77;4.33;;;;;;;;;;5053868;28;20191;-67
2023/05/18 05:39:03;;;;;;;10.27;3.77;;;;;;;;;;5053844;28;20244;-67
2023/05/18 05:41:29;;;;;;;11.07;5.17;;;;;;;;;;5054267;28;20261;-67
2023/05/18 05:43:55;;;;;;;11.53;4.73;;;;;;;;;;5035968;28;20237;-67
2023/05/18 05:46:21;;;;;;;8.53;4.43;;;;;;;;;;5054344;28;20218;-67
2023/05/18 05:48:47;;;;;;;8.63;4.60;;;;;;;;;;5036574;28;20182;-67
2023/05/18 05:51:13;;;;;;;8.17;4.20;;;;;;;;;;5053970;28;20175;-67
2023/05/18 05:53:39;;;;;;;6.47;4.43;;;;;;;;;;5057013;28;20182;-67
2023/05/18 05:56:07;;;;;;;12.33;4.97;;;;;;;;;;5057011;28;20191;-67
2023/05/18 05:58:33;;;;;;;14.67;5.43;;;;;;;;;;5065223;28;20238;-67
2023/05/18 06:00:59;;;;;;;12.30;4.87;;;;;;;;;;5052086;28;20243;-67
2023/05/18 06:03:25;;;;;;;12.02;5.65;;;;;;;;;;5064530;28;20395;-67
2023/05/18 06:05:51;;;;;;;13.50;5.65;;;;;;;;;;5054584;28;20472;-68
2023/05/18 06:08:17;;;;;;;12.27;5.20;;;;;;;;;;5039611;28;20209;-67
2023/05/18 06:10:43;;;;;;;10.23;4.70;;;;;;;;;;5037558;28;20732;-67
2023/05/18 06:13:09;;;;;;;6.17;3.70;;;;;;;;;;5036891;28;20182;-67
2023/05/18 06:15:35;;;;;;;9.37;4.07;;;;;;;;;;5054169;28;20277;-67
2023/05/18 06:18:01;;;;;;;6.73;3.90;;;;;;;;;;5053940;28;20204;-67
2023/05/18 06:20:27;;;;;;;8.13;3.77;;;;;;;;;;5035443;28;20182;-68
2023/05/18 06:22:53;;;;;;;7.50;4.00;;;;;;;;;;5035760;28;20551;-67
2023/05/18 06:25:19;;;;;;;11.53;4.77;;;;;;;;;;5035499;28;20190;-67
2023/05/18 06:27:45;;;;;;;12.40;4.73;;;;;;;;;;5035865;28;20604;-67
2023/05/18 06:30:11;;;;;;;7.27;3.90;;;;;;;;;;5054483;28;20253;-68
2023/05/18 06:32:37;;;;;;;8.97;3.93;;;;;;;;;;5057750;28;20174;-67
2023/05/18 06:35:03;;;;;;;10.10;5.00;;;;;;;;;;5039478;28;20526;-67
2023/05/18 06:37:29;;;;;;;7.27;3.43;;;;;;;;;;5039511;28;20301;-67
2023/05/18 06:39:55;;;;;;;9.83;4.20;;;;;;;;;;5039395;28;20277;-66
2023/05/18 06:42:21;;;;;;;9.50;4.43;;;;;;;;;;5057617;28;20655;-67
2023/05/18 06:44:49;;;;;;;9.37;4.63;;;;;;;;;;5057097;28;20228;-69
2023/05/18 06:47:15;;;;;;;8.80;4.57;;;;;;;;;;5056962;28;20603;-68
2023/05/18 06:49:41;;;;;;;10.60;4.40;;;;;;;;;;5057457;28;20181;-67
2023/05/18 06:52:10;;;;;;;13.20;4.90;;;;;;;;;;5039067;28;20182;-67
2023/05/18 06:54:37;;;;;;;13.63;4.93;;;;;;;;;;5057417;28;20189;-67
2023/05/18 06:57:03;;;;;;;11.37;3.90;;;;;;;;;;5057461;28;20194;-67
2023/05/18 06:59:29;;;;;;;12.60;5.57;;;;;;;;;;5056847;28;20182;-67
2023/05/18 07:01:55;;;;;;;11.50;4.90;;;;;;;;;;5057032;28;20185;-67
2023/05/18 07:04:21;;;;;;;9.83;4.90;;;;;;;;;;5039460;28;20182;-68
2023/05/18 07:06:48;;;;;;;8.73;4.27;;;;;;;;;;5056728;28;20206;-67
2023/05/18 07:09:14;;;;;;;10.77;4.40;;;;;;;;;;5056929;28;20178;-68
2023/05/18 07:11:40;;;;;;;10.60;4.30;;;;;;;;;;5067290;28;20159;-69
2023/05/18 07:14:06;;;;;;;14.63;4.93;;;;;;;;;;5067027;28;20174;-68
2023/05/18 07:16:32;;;;;;;9.10;4.17;;;;;;;;;;5057170;28;20729;-68
2023/05/18 07:18:58;;;;;;;8.33;4.40;;;;;;;;;;5056616;28;20179;-68
2023/05/18 07:21:25;;;;;;;11.30;4.97;;;;;;;;;;5057038;28;20267;-68
2023/05/18 07:23:51;;;;;;;11.83;4.20;;;;;;;;;;5039074;28;20182;-67
2023/05/18 07:26:18;;;;;;;18.83;4.27;;;;;;;;;;5056980;28;20210;-68
2023/05/18 07:28:45;;;;;;;9.50;3.60;;;;;;;;;;5056611;28;20174;-67
2023/05/18 07:31:13;;;;;;;8.07;4.10;;;;;;;;;;5056375;28;20186;-68
2023/05/18 07:33:39;;;;;;;9.67;4.20;;;;;;;;;;5056254;28;20200;-68
2023/05/18 07:36:05;;;;;;;8.80;3.90;;;;;;;;;;5038293;28;20616;-68
2023/05/18 07:38:31;;;;;;;9.80;3.90;;;;;;;;;;5056376;28;20179;-68
2023/05/18 07:40:58;;;;;;;8.70;3.90;;;;;;;;;;5055738;28;20190;-68
2023/05/18 07:43:24;;;;;;;12.53;4.87;;;;;;;;;;5056577;28;20178;-68
2023/05/18 07:45:50;;;;;;;8.43;4.67;;;;;;;;;;5055889;28;20201;-68
2023/05/18 07:48:16;;;;;;;9.63;4.57;;;;;;;;;;5056206;28;20203;-68
2023/05/18 07:50:42;;;;;;;15.00;4.50;;;;;;;;;;5056325;28;20174;-68
2023/05/18 07:53:08;;;;;;;9.77;3.70;;;;;;;;;;5055939;28;20289;-68
2023/05/18 07:55:34;;;;;;;9.43;4.40;;;;;;;;;;5055705;28;20220;-67
2023/05/18 07:58:00;;;;;;;8.43;3.70;;;;;;;;;;5056343;28;20217;-68
2023/05/18 08:00:26;;;;;;;12.60;4.60;;;;;;;;;;5056023;28;20685;-68
2023/05/18 08:02:53;;;;;;;15.97;4.43;;;;;;;;;;5055794;28;20179;-68
2023/05/18 08:05:21;;;;;;;9.03;4.13;;;;;;;;;;5055920;28;20178;-68
2023/05/18 08:07:47;;;;;;;9.43;3.73;;;;;;;;;;5056258;28;20221;-68
2023/05/18 08:10:13;;;;;;;8.37;3.43;;;;;;;;;;5037885;28;20551;-68
2023/05/18 08:12:39;;;;;;;11.23;4.47;;;;;;;;;;5055687;28;20179;-68
2023/05/18 08:15:05;;;;;;;11.80;4.33;;;;;;;;;;5055738;28;20258;-69
2023/05/18 08:17:31;;;;;;;9.23;3.63;;;;;;;;;;5037525;28;20565;-69
2023/05/18 08:19:57;;;;;;;8.90;3.90;;;;;;;;;;5037474;28;20178;-68
2023/05/18 08:22:23;;;;;;;10.70;3.90;;;;;;;;;;5055489;28;20254;-68
2023/05/18 08:24:49;;;;;;;10.00;3.93;;;;;;;;;;5055602;28;20187;-69
2023/05/18 08:27:15;;;;;;;11.23;4.23;;;;;;;;;;5055453;28;20219;-69
2023/05/18 08:29:41;;;;;;;6.37;3.00;;;;;;;;;;5055395;28;20257;-69
2023/05/18 08:32:07;;;;;;;10.10;3.90;;;;;;;;;;5055376;28;20213;-68
2023/05/18 08:34:34;;;;;;;12.30;4.10;;;;;;;;;;5055371;28;20227;-68
2023/05/18 08:37:00;;;;;;;7.47;3.40;;;;;;;;;;5055466;28;20416;-68
2023/05/18 08:39:30;;;;;;;8.70;3.37;;;;;;;;;;5056107;28;20174;-68
2023/05/18 08:42:01;;;;;;;12.77;3.87;;;;;;;;;;5067496;28;20254;-68
2023/05/18 08:44:36;;;;;;;11.80;4.27;;;;;;;;;;5053653;28;20171;-69
2023/05/18 08:47:03;;;;;;;9.77;3.33;;;;;;;;;;5074031;28;20210;-69
2023/05/18 08:49:30;;;;;;;10.70;3.70;;;;;;;;;;5073541;28;20185;-69
2023/05/18 08:51:57;;;;;;;8.13;4.20;;;;;;;;;;5074709;28;20189;-69
2023/05/18 08:54:23;;;;;;;9.30;3.83;;;;;;;;;;5074076;28;20170;-69
2023/05/18 08:56:50;;;;;;;10.77;3.80;;;;;;;;;;5071779;28;20202;-69
2023/05/18 08:59:18;;;;;;;9.03;3.87;;;;;;;;;;5038132;28;20679;-69
2023/05/18 09:01:44;;;;;;;10.03;3.60;;;;;;;;;;5055852;28;20181;-69
2023/05/18 09:04:11;;;;;;;9.50;3.53;;;;;;;;;;5037537;28;20556;-68
2023/05/18 09:06:37;;;;;;;10.27;3.63;;;;;;;;;;5055130;28;20232;-69
2023/05/18 09:09:04;;;;;;;7.17;3.70;;;;;;;;;;5055369;28;20175;-69
2023/05/18 09:11:31;;;;;;;9.90;3.80;;;;;;;;;;5055566;28;20254;-69
2023/05/18 09:13:58;;;;;;;13.73;4.53;;;;;;;;;;5037612;28;20175;-69
2023/05/18 09:16:24;;;;;;;8.73;3.70;;;;;;;;;;5055191;28;20202;-69
2023/05/18 09:18:50;;;;;;;8.60;3.73;;;;;;;;;;5036923;28;20182;-68
2023/05/18 09:21:16;;;;;;;11.67;3.40;;;;;;;;;;5037793;28;20221;-69
2023/05/18 09:23:43;;;;;;;9.10;4.27;;;;;;;;;;5038733;28;20189;-69
2023/05/18 09:26:10;;;;;;;8.03;3.60;;;;;;;;;;5054769;28;20305;-69
2023/05/18 09:28:36;;;;;;;11.77;4.43;;;;;;;;;;5055516;28;20178;-68
2023/05/18 09:31:11;;;;;;;10.17;4.03;;;;;;;;;;5054831;28;20171;-68
2023/05/18 09:33:38;;;;;;;11.10;4.07;;;;;;;;;;5036847;28;20265;-68
2023/05/18 09:36:05;;;;;;;9.50;3.87;;;;;;;;;;5054703;28;20194;-68
2023/05/18 09:38:32;;;;;;;8.13;3.87;;;;;;;;;;5036778;28;20181;-68
2023/05/18 09:40:59;;;;;;;12.27;4.53;;;;;;;;;;5054884;28;20179;-68
2023/05/18 09:43:25;;;;;;;12.50;4.57;;;;;;;;;;5054648;28;20253;-68
2023/05/18 09:45:51;;;;;;;10.23;3.83;;;;;;;;;;5054186;28;20634;-68
2023/05/18 09:48:17;;;;;;;13.57;3.90;;;;;;;;;;5055308;28;20535;-68
2023/05/18 09:50:44;;;;;;;9.37;3.80;;;;;;;;;;5054359;28;20541;-68
2023/05/18 09:53:10;;;;;;;13.00;4.63;;;;;;;;;;5054594;28;20179;-69
2023/05/18 09:55:38;;;;;;;12.33;3.73;;;;;;;;;;5054588;28;20278;-68
2023/05/18 09:58:06;;;;;;;8.93;3.87;;;;;;;;;;5054503;28;20636;-68
2023/05/18 10:00:36;;;;;;;9.80;3.47;;;;;;;;;;5054273;28;20170;-68
2023/05/18 10:03:02;;;;;;;9.73;4.10;;;;;;;;;;5053971;28;20182;-69
2023/05/18 10:05:33;;;;;;;8.40;3.83;;;;;;;;;;5035715;28;20701;-68
2023/05/18 10:07:59;;;;;;;10.07;4.07;;;;;;;;;;5053976;28;20285;-68
2023/05/18 10:10:26;;;;;;;11.30;4.50;;;;;;;;;;5053637;28;20662;-68
2023/05/18 10:12:53;;;;;;;12.43;4.50;;;;;;;;;;5053497;28;20198;-69
2023/05/18 10:15:23;;;;;;;11.63;4.03;;;;;;;;;;5054200;28;20181;-68
2023/05/18 10:17:49;;;;;;;9.40;3.80;;;;;;;;;;5035973;28;20186;-68
2023/05/18 10:20:20;;;;;;;9.20;4.37;;;;;;;;;;5035985;28;20197;-68
2023/05/18 10:22:47;;;;;;;11.17;4.30;;;;;;;;;;5054642;28;20171;-69
2023/05/18 10:25:18;;;;;;;7.70;3.80;;;;;;;;;;5035800;28;20272;-68
2023/05/18 10:27:44;;;;;;;10.73;4.03;;;;;;;;;;5053624;28;20626;-67
2023/05/18 10:30:11;;;;;;;8.53;3.53;;;;;;;;;;5053522;28;20556;-68
2023/05/18 10:32:38;;;;;;;8.13;3.73;;;;;;;;;;5053736;28;20178;-67
2023/05/18 10:35:05;;;;;;;6.07;3.10;;;;;;;;;;5055786;28;20171;-67
2023/05/18 10:37:33;;;;;;;9.17;4.33;;;;;;;;;;5054067;28;20205;-68
2023/05/18 10:40:00;;;;;;;9.10;4.00;;;;;;;;;;5053250;28;20187;-68
2023/05/18 10:42:26;;;;;;;11.37;3.93;;;;;;;;;;5035444;28;20186;-68
2023/05/18 10:44:52;;;;;;;9.87;4.73;;;;;;;;;;5035509;28;20183;-69
2023/05/18 10:47:19;;;;;;;10.07;3.90;;;;;;;;;;5053671;28;20249;-68
2023/05/18 10:49:48;;;;;;;7.00;3.60;;;;;;;;;;5036016;28;20181;-67
2023/05/18 10:52:16;;;;;;;9.80;4.57;;;;;;;;;;5055084;28;20591;-67
2023/05/18 10:54:42;;;;;;;14.13;4.30;;;;;;;;;;5055461;28;20178;-68
2023/05/18 10:57:14;;;;;;;9.30;4.00;;;;;;;;;;5037648;28;20206;-68
2023/05/18 10:59:42;;;;;;;8.43;3.77;;;;;;;;;;5055426;28;20560;-67
2023/05/18 11:02:08;;;;;;;13.87;4.80;;;;;;;;;;5054891;28;20179;-67
2023/05/18 11:04:34;;;;;;;8.80;4.17;;;;;;;;;;5035357;28;20660;-66
2023/05/18 11:07:01;;;;;;;11.47;4.10;;;;;;;;;;5052954;28;20220;-68
2023/05/18 11:09:28;;;;;;;8.97;4.00;;;;;;;;;;5053103;28;20191;-67
2023/05/18 11:11:56;;;;;;;10.17;4.10;;;;;;;;;;5052998;28;20183;-68
2023/05/18 11:14:26;;;;;;;8.23;3.27;;;;;;;;;;5059453;28;20213;-67
2023/05/18 11:16:52;;;;;;;13.37;4.30;;;;;;;;;;5057403;28;20190;-68
2023/05/18 11:19:19;;;;;;;6.53;3.00;;;;;;;;;;5056711;28;20185;-67
2023/05/18 11:21:45;;;;;;;10.37;3.93;;;;;;;;;;5056538;28;20170;-68
2023/05/18 11:24:23;;;;;;;7.70;4.10;;;;;;;;;;5056716;28;20202;-67
2023/05/18 11:26:55;;;;;;;10.43;4.50;;;;;;;;;;5038434;28;20232;-68
2023/05/18 11:29:22;;;;;;;10.23;4.03;;;;;;;;;;5069077;28;20610;-67
2023/05/18 11:31:49;;;;;;;9.93;3.93;;;;;;;;;;5069147;28;20175;-68
2023/05/18 11:34:34;;;;;;;9.87;4.00;;;;;;;;;;5060007;28;20232;-67
2023/05/18 11:37:00;;;;;;;13.37;4.40;;;;;;;;;;5056370;28;20202;-68
2023/05/18 11:39:26;;;;;;;7.37;3.93;;;;;;;;;;5056867;28;20237;-67
2023/05/18 11:42:19;;;;;;;9.40;4.20;;;;;;;;;;5056656;28;20183;-67
2023/05/18 11:44:51;;;;;;;7.67;4.07;;;;;;;;;;5053036;28;20190;-67
2023/05/18 11:47:17;;;;;;;7.90;3.90;;;;;;;;;;5056692;28;20206;-69
2023/05/18 11:49:45;;;;;;;7.47;3.87;;;;;;;;;;5038251;28;20174;-67
2023/05/18 11:52:19;;;;;;;9.50;4.07;;;;;;;;;;5056106;28;20196;-67
2023/05/18 11:54:46;;;;;;;8.37;3.50;;;;;;;;;;5038356;28;20179;-68
2023/05/18 11:57:13;;;;;;;9.13;3.47;;;;;;;;;;5056101;28;20321;-68
2023/05/18 11:59:40;;;;;;;9.17;4.30;;;;;;;;;;5056325;28;20216;-68
2023/05/18 12:02:09;;;;;;;10.90;4.03;;;;;;;;;;5056104;28;20265;-68
2023/05/18 12:04:36;;;;;;;9.60;3.90;;;;;;;;;;5055755;28;20177;-68
2023/05/18 12:07:06;;;;;;;5.47;3.20;;;;;;;;;;5038029;28;20568;-68
2023/05/18 12:09:32;;;;;;;8.17;3.93;;;;;;;;;;5038041;28;20656;-68
2023/05/18 12:11:58;;;;;;;9.83;3.20;;;;;;;;;;5056244;28;20209;-68
2023/05/18 12:14:24;;;;;;;9.60;3.87;;;;;;;;;;5056288;28;20174;-68
2023/05/18 12:16:51;;;;;;;9.40;4.00;;;;;;;;;;5038265;28;20213;-68
2023/05/18 12:19:18;;;;;;;9.30;4.00;;;;;;;;;;5058438;28;20179;-68
2023/05/18 12:21:44;;;;;;;11.00;3.50;;;;;;;;;;5058108;28;20174;-68
2023/05/18 12:24:11;;;;;;;5.87;3.43;;;;;;;;;;5059822;28;20575;-68
2023/05/18 12:26:37;;;;;;;8.80;3.87;;;;;;;;;;5040235;28;20291;-69
2023/05/18 12:29:03;;;;;;;6.97;3.47;;;;;;;;;;5040010;28;20178;-69
2023/05/18 12:31:29;;;;;;;8.70;3.90;;;;;;;;;;5055658;28;20179;-68
2023/05/18 12:33:56;;;;;;;13.37;4.63;;;;;;;;;;5055273;28;20229;-69
2023/05/18 12:36:22;;;;;;;7.80;3.53;;;;;;;;;;5037276;28;20204;-68
2023/05/18 12:38:51;;;;;;;6.33;3.47;;;;;;;;;;5055710;28;20183;-68
2023/05/18 12:41:25;;;;;;;7.53;3.80;;;;;;;;;;5054005;28;20382;-69
2023/05/18 12:43:53;;;;;;;8.10;3.70;;;;;;;;;;5055833;28;20166;-69
2023/05/18 12:46:20;;;;;;;5.63;3.33;;;;;;;;;;5055188;28;20228;-66
2023/05/18 12:48:46;;;;;;;10.23;3.53;;;;;;;;;;5055313;28;20229;-69
2023/05/18 12:51:19;;;;;;;9.00;3.57;;;;;;;;;;5037112;28;20265;-68
2023/05/18 12:53:45;;;;;;;7.33;3.17;;;;;;;;;;5037143;28;20231;-68
2023/05/18 12:56:11;;;;;;;7.50;3.50;;;;;;;;;;5054941;28;20202;-69
2023/05/18 12:58:39;;;;;;;5.90;3.13;;;;;;;;;;5054914;28;20174;-68
2023/05/18 13:01:08;;;;;;;5.80;3.20;;;;;;;;;;5054782;28;20170;-69
2023/05/18 13:03:34;;;;;;;9.30;3.27;;;;;;;;;;5036988;28;20273;-69
2023/05/18 13:06:04;;;;;;;4.83;2.80;;;;;;;;;;5054719;28;20221;-69
2023/05/18 13:08:31;;;;;;;7.60;3.40;;;;;;;;;;5054563;28;20312;-69
2023/05/18 13:11:01;;;;;;;8.90;3.33;;;;;;;;;;5036555;28;20174;-69
2023/05/18 13:13:27;;;;;;;8.33;2.93;;;;;;;;;;5036785;28;20186;-68
2023/05/18 13:15:53;;;;;;;14.63;7.63;;;;;;;;;;5056276;28;20568;-69
2023/05/18 13:18:19;;;;;;;6.90;3.53;;;;;;;;;;5056488;28;20186;-69
2023/05/18 13:20:49;;;;;;;6.13;2.83;;;;;;;;;;5055475;28;20178;-69
2023/05/18 13:23:16;;;;;;;7.63;3.33;;;;;;;;;;5077065;22;20687;-64
2023/05/18 13:25:42;;;;;;;7.70;3.73;;;;;;;;;;5054627;28;20632;-66
2023/05/18 13:28:09;;;;;;;5.37;2.50;;;;;;;;;;5054090;28;20234;-67
2023/05/18 13:30:36;;;;;;;7.57;3.13;;;;;;;;;;5054040;28;20185;-66
2023/05/18 13:33:02;;;;;;;7.80;2.57;;;;;;;;;;5053884;28;20336;-66
2023/05/18 13:35:28;;;;;;;8.20;3.27;;;;;;;;;;5036041;28;20185;-66
2023/05/18 13:37:54;;;;;;;9.23;3.63;;;;;;;;;;5054049;28;20190;-66
2023/05/18 13:40:22;;;;;;;8.38;3.55;;;;;;;;;;5052369;28;20508;-66
2023/05/18 13:42:48;;;;;;;8.85;3.72;;;;;;;;;;5034764;28;20389;-67
2023/05/18 13:45:14;;;;;;;9.73;3.73;;;;;;;;;;5035460;28;20393;-65
2023/05/18 13:47:41;;;;;;;11.07;3.70;;;;;;;;;;5052666;28;20401;-67
2023/05/18 13:50:07;;;;;;;7.67;3.57;;;;;;;;;;5035979;28;20178;-67
2023/05/18 13:52:33;;;;;;;7.10;3.00;;;;;;;;;;5053614;28;20226;-67
2023/05/18 13:55:00;;;;;;;6.57;3.27;;;;;;;;;;5053839;28;20180;-67
2023/05/18 13:57:26;;;;;;;5.90;3.00;;;;;;;;;;5036267;28;20536;-67
2023/05/18 13:59:52;;;;;;;8.97;3.53;;;;;;;;;;5053805;28;20241;-68
2023/05/18 14:02:18;;;;;;;6.40;2.70;;;;;;;;;;5053534;28;20179;-69
2023/05/18 14:04:44;;;;;;;8.37;3.30;;;;;;;;;;5053720;28;20215;-67
2023/05/18 14:07:11;;;;;;;5.63;3.30;;;;;;;;;;5035556;28;20264;-67
2023/05/18 14:09:37;;;;;;;7.13;3.50;;;;;;;;;;5035733;28;20701;-63
2023/05/18 14:12:04;;;;;;;5.10;2.43;;;;;;;;;;5053345;28;20261;-67
2023/05/18 14:14:30;;;;;;;7.07;3.40;;;;;;;;;;5053475;28;20202;-67
2023/05/18 14:16:56;;;;;;;4.00;2.77;;;;;;;;;;5035349;28;20178;-65
2023/05/18 14:19:22;;;;;;;4.67;2.60;;;;;;;;;;5053452;28;20175;-72
2023/05/18 14:21:48;;;;;;;8.60;3.50;;;;;;;;;;5053719;28;20265;-65
2023/05/18 14:24:14;;;;;;;6.40;3.27;;;;;;;;;;5053091;28;20217;-65
2023/05/18 14:26:41;;;;;;;6.10;2.80;;;;;;;;;;5035213;28;20212;-65
2023/05/18 14:29:07;;;;;;;7.00;2.77;;;;;;;;;;5053738;28;20206;-65
2023/05/18 14:31:34;;;;;;;4.77;2.60;;;;;;;;;;5053749;28;20178;-65
2023/05/18 14:34:00;;;;;;;10.00;2.90;;;;;;;;;;5053419;28;20186;-66